sensor_id;sensor_type;location;lat;lon;timestamp;P1;durP1;ratioP1;P2;durP2;ratioP2
5945;SDS011;2998;48.206;16.394;2023-04-24T00:00:10;7.07;;;6.37;;
5945;SDS011;2998;48.206;16.394;2023-04-24T00:02:42;6.53;;;5.90;;
5945;SDS011;2998;48.206;16.394;2023-04-24T00:09:33;7.17;;;6.47;;
5945;SDS011;2998;48.206;16.394;2023-04-24T00:12:02;8.23;;;6.70;;
5945;SDS011;2998;48.206;16.394;2023-04-24T00:18:50;5.77;;;5.30;;
5945;SDS011;2998;48.206;16.394;2023-04-24T00:21:20;6.60;;;6.10;;
5945;SDS011;2998;48.206;16.394;2023-04-24T00:23:52;6.43;;;5.83;;
5945;SDS011;2998;48.206;16.394;2023-04-24T00:26:23;6.83;;;6.30;;
5945;SDS011;2998;48.206;16.394;2023-04-24T00:28:53;6.73;;;6.13;;
5945;SDS011;2998;48.206;16.394;2023-04-24T00:31:22;13.20;;;9.80;;
5945;SDS011;2998;48.206;16.394;2023-04-24T00:33:51;60.63;;;30.07;;
5945;SDS011;2998;48.206;16.394;2023-04-24T00:36:20;11.90;;;8.77;;
5945;SDS011;2998;48.206;16.394;2023-04-24T00:38:49;13.43;;;9.40;;
5945;SDS011;2998;48.206;16.394;2023-04-24T00:45:38;7.30;;;6.70;;
5945;SDS011;2998;48.206;16.394;2023-04-24T00:48:08;7.60;;;5.97;;
5945;SDS011;2998;48.206;16.394;2023-04-24T00:54:57;10.47;;;9.23;;
5945;SDS011;2998;48.206;16.394;2023-04-24T00:57:26;12.20;;;8.80;;
5945;SDS011;2998;48.206;16.394;2023-04-24T01:04:15;9.40;;;8.10;;
5945;SDS011;2998;48.206;16.394;2023-04-24T01:06:46;10.33;;;8.40;;
5945;SDS011;2998;48.206;16.394;2023-04-24T01:09:19;8.00;;;7.20;;
5945;SDS011;2998;48.206;16.394;2023-04-24T01:11:50;6.63;;;6.00;;
5945;SDS011;2998;48.206;16.394;2023-04-24T01:14:20;7.03;;;6.43;;
5945;SDS011;2998;48.206;16.394;2023-04-24T01:16:49;10.23;;;6.63;;
5945;SDS011;2998;48.206;16.394;2023-04-24T01:19:20;6.40;;;5.80;;
5945;SDS011;2998;48.206;16.394;2023-04-24T01:21:50;6.70;;;6.20;;
5945;SDS011;2998;48.206;16.394;2023-04-24T01:24:21;6.47;;;5.97;;
5945;SDS011;2998;48.206;16.394;2023-04-24T01:26:50;6.37;;;5.73;;
5945;SDS011;2998;48.206;16.394;2023-04-24T01:29:19;6.30;;;5.70;;
5945;SDS011;2998;48.206;16.394;2023-04-24T01:31:49;6.93;;;6.23;;
5945;SDS011;2998;48.206;16.394;2023-04-24T01:34:18;8.87;;;7.97;;
5945;SDS011;2998;48.206;16.394;2023-04-24T01:36:47;5.83;;;5.40;;
5945;SDS011;2998;48.206;16.394;2023-04-24T01:39:17;22.57;;;10.70;;
5945;SDS011;2998;48.206;16.394;2023-04-24T01:41:48;27.77;;;12.70;;
5945;SDS011;2998;48.206;16.394;2023-04-24T01:44:19;11.70;;;8.20;;
5945;SDS011;2998;48.206;16.394;2023-04-24T01:51:03;6.90;;;6.30;;
5945;SDS011;2998;48.206;16.394;2023-04-24T01:53:32;6.00;;;5.60;;
5945;SDS011;2998;48.206;16.394;2023-04-24T02:00:33;8.33;;;7.53;;
5945;SDS011;2998;48.206;16.394;2023-04-24T02:03:03;10.20;;;8.27;;
5945;SDS011;2998;48.206;16.394;2023-04-24T02:09:45;9.63;;;8.60;;
5945;SDS011;2998;48.206;16.394;2023-04-24T02:16:35;7.60;;;6.90;;
5945;SDS011;2998;48.206;16.394;2023-04-24T02:19:05;10.23;;;8.93;;
5945;SDS011;2998;48.206;16.394;2023-04-24T02:30:11;8.13;;;7.53;;
5945;SDS011;2998;48.206;16.394;2023-04-24T02:32:42;8.80;;;7.83;;
5945;SDS011;2998;48.206;16.394;2023-04-24T02:35:11;8.93;;;7.90;;
5945;SDS011;2998;48.206;16.394;2023-04-24T02:37:40;8.20;;;7.40;;
5945;SDS011;2998;48.206;16.394;2023-04-24T02:40:09;9.77;;;8.87;;
5945;SDS011;2998;48.206;16.394;2023-04-24T02:46:51;8.87;;;8.17;;
5945;SDS011;2998;48.206;16.394;2023-04-24T02:49:22;9.57;;;8.03;;
5945;SDS011;2998;48.206;16.394;2023-04-24T02:56:10;9.80;;;8.90;;
5945;SDS011;2998;48.206;16.394;2023-04-24T02:58:40;11.23;;;10.10;;
5945;SDS011;2998;48.206;16.394;2023-04-24T03:05:29;11.23;;;9.50;;
5945;SDS011;2998;48.206;16.394;2023-04-24T03:07:59;12.03;;;10.93;;
5945;SDS011;2998;48.206;16.394;2023-04-24T03:10:28;10.50;;;9.60;;
5945;SDS011;2998;48.206;16.394;2023-04-24T03:17:11;11.90;;;9.20;;
5945;SDS011;2998;48.206;16.394;2023-04-24T03:19:40;11.97;;;10.80;;
5945;SDS011;2998;48.206;16.394;2023-04-24T03:30:55;12.93;;;11.63;;
5945;SDS011;2998;48.206;16.394;2023-04-24T03:33:25;13.73;;;12.33;;
5945;SDS011;2998;48.206;16.394;2023-04-24T03:35:54;17.23;;;10.27;;
5945;SDS011;2998;48.206;16.394;2023-04-24T03:42:42;14.60;;;13.10;;
5945;SDS011;2998;48.206;16.394;2023-04-24T03:45:12;26.03;;;20.57;;
5945;SDS011;2998;48.206;16.394;2023-04-24T03:52:02;14.47;;;12.93;;
5945;SDS011;2998;48.206;16.394;2023-04-24T03:54:31;14.40;;;11.53;;
5945;SDS011;2998;48.206;16.394;2023-04-24T04:01:19;11.27;;;10.20;;
5945;SDS011;2998;48.206;16.394;2023-04-24T04:03:49;16.77;;;14.50;;
5945;SDS011;2998;48.206;16.394;2023-04-24T04:06:18;19.43;;;14.20;;
5945;SDS011;2998;48.206;16.394;2023-04-24T04:12:57;13.40;;;11.93;;
5945;SDS011;2998;48.206;16.394;2023-04-24T04:15:27;13.27;;;12.07;;
5945;SDS011;2998;48.206;16.394;2023-04-24T04:22:15;15.40;;;12.80;;
5945;SDS011;2998;48.206;16.394;2023-04-24T04:24:45;13.10;;;11.73;;
5945;SDS011;2998;48.206;16.394;2023-04-24T04:31:24;17.10;;;14.17;;
5945;SDS011;2998;48.206;16.394;2023-04-24T04:38:11;19.33;;;14.33;;
5945;SDS011;2998;48.206;16.394;2023-04-24T04:40:42;17.47;;;15.10;;
5945;SDS011;2998;48.206;16.394;2023-04-24T04:47:31;17.50;;;15.20;;
5945;SDS011;2998;48.206;16.394;2023-04-24T04:50:01;19.40;;;16.20;;
5945;SDS011;2998;48.206;16.394;2023-04-24T04:56:55;14.77;;;13.40;;
5945;SDS011;2998;48.206;16.394;2023-04-24T05:03:44;17.50;;;14.80;;
5945;SDS011;2998;48.206;16.394;2023-04-24T05:06:14;15.37;;;12.83;;
5945;SDS011;2998;48.206;16.394;2023-04-24T05:13:02;17.33;;;15.23;;
5945;SDS011;2998;48.206;16.394;2023-04-24T05:15:31;16.93;;;15.17;;
5945;SDS011;2998;48.206;16.394;2023-04-24T05:22:23;21.03;;;16.67;;
5945;SDS011;2998;48.206;16.394;2023-04-24T05:24:52;19.57;;;15.17;;
5945;SDS011;2998;48.206;16.394;2023-04-24T05:27:21;16.43;;;14.10;;
5945;SDS011;2998;48.206;16.394;2023-04-24T05:34:03;19.07;;;14.93;;
5945;SDS011;2998;48.206;16.394;2023-04-24T05:36:32;17.10;;;14.80;;
5945;SDS011;2998;48.206;16.394;2023-04-24T05:43:21;26.40;;;17.03;;
5945;SDS011;2998;48.206;16.394;2023-04-24T05:45:50;32.57;;;21.30;;
5945;SDS011;2998;48.206;16.394;2023-04-24T05:52:39;25.70;;;18.87;;
5945;SDS011;2998;48.206;16.394;2023-04-24T05:59:28;13.03;;;11.57;;
5945;SDS011;2998;48.206;16.394;2023-04-24T06:01:57;13.43;;;12.13;;
5945;SDS011;2998;48.206;16.394;2023-04-24T06:08:53;13.30;;;12.00;;
5945;SDS011;2998;48.206;16.394;2023-04-24T06:11:22;12.23;;;11.03;;
5945;SDS011;2998;48.206;16.394;2023-04-24T06:18:12;13.03;;;11.93;;
5945;SDS011;2998;48.206;16.394;2023-04-24T06:20:43;13.70;;;12.40;;
5945;SDS011;2998;48.206;16.394;2023-04-24T06:23:13;14.00;;;12.30;;
5945;SDS011;2998;48.206;16.394;2023-04-24T06:25:43;15.37;;;13.87;;
5945;SDS011;2998;48.206;16.394;2023-04-24T06:28:12;13.00;;;11.70;;
5945;SDS011;2998;48.206;16.394;2023-04-24T06:30:41;14.20;;;12.80;;
5945;SDS011;2998;48.206;16.394;2023-04-24T06:33:12;13.57;;;12.37;;
5945;SDS011;2998;48.206;16.394;2023-04-24T06:39:54;13.83;;;12.53;;
5945;SDS011;2998;48.206;16.394;2023-04-24T06:42:23;14.67;;;13.27;;
5945;SDS011;2998;48.206;16.394;2023-04-24T06:49:12;13.23;;;11.90;;
5945;SDS011;2998;48.206;16.394;2023-04-24T06:51:43;18.50;;;13.43;;
5945;SDS011;2998;48.206;16.394;2023-04-24T06:58:31;13.27;;;12.03;;
5945;SDS011;2998;48.206;16.394;2023-04-24T07:01:01;11.93;;;10.87;;
5945;SDS011;2998;48.206;16.394;2023-04-24T07:03:30;13.67;;;12.43;;
5945;SDS011;2998;48.206;16.394;2023-04-24T07:10:13;12.23;;;11.03;;
5945;SDS011;2998;48.206;16.394;2023-04-24T07:12:43;13.70;;;12.40;;
5945;SDS011;2998;48.206;16.394;2023-04-24T07:19:32;14.17;;;12.77;;
5945;SDS011;2998;48.206;16.394;2023-04-24T07:22:02;17.83;;;15.70;;
5945;SDS011;2998;48.206;16.394;2023-04-24T07:29:04;8.13;;;7.23;;
5945;SDS011;2998;48.206;16.394;2023-04-24T07:31:33;6.73;;;6.23;;
5945;SDS011;2998;48.206;16.394;2023-04-24T07:34:03;6.30;;;5.90;;
5945;SDS011;2998;48.206;16.394;2023-04-24T07:36:32;4.97;;;4.67;;
5945;SDS011;2998;48.206;16.394;2023-04-24T07:39:02;3.47;;;2.90;;
5945;SDS011;2998;48.206;16.394;2023-04-24T07:41:31;2.40;;;2.30;;
5945;SDS011;2998;48.206;16.394;2023-04-24T07:44:01;2.00;;;1.90;;
5945;SDS011;2998;48.206;16.394;2023-04-24T07:50:50;1.70;;;1.60;;
5945;SDS011;2998;48.206;16.394;2023-04-24T07:53:20;1.77;;;1.67;;
5945;SDS011;2998;48.206;16.394;2023-04-24T08:00:14;1.10;;;1.00;;
5945;SDS011;2998;48.206;16.394;2023-04-24T08:02:44;1.03;;;1.00;;
5945;SDS011;2998;48.206;16.394;2023-04-24T08:09:27;2.43;;;1.43;;
5945;SDS011;2998;48.206;16.394;2023-04-24T08:11:57;1.10;;;1.10;;
5945;SDS011;2998;48.206;16.394;2023-04-24T08:14:27;1.70;;;1.60;;
5945;SDS011;2998;48.206;16.394;2023-04-24T08:16:57;0.93;;;0.93;;
5945;SDS011;2998;48.206;16.394;2023-04-24T08:19:28;1.07;;;1.07;;
5945;SDS011;2998;48.206;16.394;2023-04-24T08:21:59;5.93;;;2.20;;
5945;SDS011;2998;48.206;16.394;2023-04-24T08:24:29;0.80;;;0.80;;
5945;SDS011;2998;48.206;16.394;2023-04-24T08:35:59;1.10;;;1.00;;
5945;SDS011;2998;48.206;16.394;2023-04-24T08:38:28;1.20;;;1.10;;
5945;SDS011;2998;48.206;16.394;2023-04-24T08:45:12;2.80;;;2.50;;
5945;SDS011;2998;48.206;16.394;2023-04-24T08:47:42;1.57;;;1.47;;
5945;SDS011;2998;48.206;16.394;2023-04-24T08:50:12;2.23;;;1.30;;
5945;SDS011;2998;48.206;16.394;2023-04-24T08:52:42;1.77;;;1.67;;
5945;SDS011;2998;48.206;16.394;2023-04-24T08:55:12;2.90;;;2.70;;
5945;SDS011;2998;48.206;16.394;2023-04-24T08:57:44;1.80;;;1.70;;
5945;SDS011;2998;48.206;16.394;2023-04-24T09:00:18;2.33;;;2.03;;
5945;SDS011;2998;48.206;16.394;2023-04-24T09:02:48;1.10;;;1.07;;
5945;SDS011;2998;48.206;16.394;2023-04-24T09:05:19;1.73;;;1.63;;
5945;SDS011;2998;48.206;16.394;2023-04-24T09:07:54;1.93;;;1.83;;
5945;SDS011;2998;48.206;16.394;2023-04-24T09:10:24;1.50;;;1.40;;
5945;SDS011;2998;48.206;16.394;2023-04-24T09:12:54;1.17;;;1.13;;
5945;SDS011;2998;48.206;16.394;2023-04-24T09:15:27;1.40;;;1.30;;
5945;SDS011;2998;48.206;16.394;2023-04-24T09:17:57;1.43;;;1.33;;
5945;SDS011;2998;48.206;16.394;2023-04-24T09:20:26;2.17;;;1.97;;
5945;SDS011;2998;48.206;16.394;2023-04-24T09:22:56;3.60;;;3.30;;
5945;SDS011;2998;48.206;16.394;2023-04-24T09:25:30;2.70;;;2.47;;
5945;SDS011;2998;48.206;16.394;2023-04-24T09:28:01;2.00;;;1.90;;
5945;SDS011;2998;48.206;16.394;2023-04-24T09:30:33;1.00;;;1.00;;
5945;SDS011;2998;48.206;16.394;2023-04-24T09:33:12;1.20;;;1.10;;
5945;SDS011;2998;48.206;16.394;2023-04-24T09:35:42;1.70;;;1.60;;
5945;SDS011;2998;48.206;16.394;2023-04-24T09:38:11;1.30;;;1.20;;
5945;SDS011;2998;48.206;16.394;2023-04-24T09:40:40;0.90;;;0.90;;
5945;SDS011;2998;48.206;16.394;2023-04-24T09:43:10;1.10;;;1.00;;
5945;SDS011;2998;48.206;16.394;2023-04-24T09:45:41;1.40;;;1.30;;
5945;SDS011;2998;48.206;16.394;2023-04-24T09:48:10;1.50;;;1.10;;
5945;SDS011;2998;48.206;16.394;2023-04-24T09:50:45;1.00;;;1.00;;
5945;SDS011;2998;48.206;16.394;2023-04-24T09:53:15;0.90;;;0.90;;
5945;SDS011;2998;48.206;16.394;2023-04-24T09:55:45;0.70;;;0.70;;
5945;SDS011;2998;48.206;16.394;2023-04-24T09:58:15;3.80;;;3.20;;
5945;SDS011;2998;48.206;16.394;2023-04-24T10:00:46;3.03;;;2.83;;
5945;SDS011;2998;48.206;16.394;2023-04-24T10:03:15;2.27;;;2.17;;
5945;SDS011;2998;48.206;16.394;2023-04-24T10:05:47;1.70;;;1.60;;
5945;SDS011;2998;48.206;16.394;2023-04-24T10:08:16;2.80;;;2.60;;
5945;SDS011;2998;48.206;16.394;2023-04-24T10:10:46;1.50;;;1.40;;
5945;SDS011;2998;48.206;16.394;2023-04-24T10:13:15;1.87;;;1.77;;
5945;SDS011;2998;48.206;16.394;2023-04-24T10:15:46;0.60;;;0.50;;
5945;SDS011;2998;48.206;16.394;2023-04-24T10:18:16;1.47;;;0.80;;
5945;SDS011;2998;48.206;16.394;2023-04-24T10:20:46;0.67;;;0.60;;
5945;SDS011;2998;48.206;16.394;2023-04-24T10:27:21;0.90;;;0.90;;
5945;SDS011;2998;48.206;16.394;2023-04-24T10:29:51;0.80;;;0.80;;
5945;SDS011;2998;48.206;16.394;2023-04-24T10:36:42;2.33;;;2.13;;
5945;SDS011;2998;48.206;16.394;2023-04-24T10:39:15;2.07;;;0.77;;
5945;SDS011;2998;48.206;16.394;2023-04-24T10:46:16;0.80;;;0.80;;
5945;SDS011;2998;48.206;16.394;2023-04-24T10:48:52;1.07;;;1.07;;
5945;SDS011;2998;48.206;16.394;2023-04-24T10:51:22;1.97;;;1.77;;
5945;SDS011;2998;48.206;16.394;2023-04-24T10:53:55;1.00;;;1.00;;
5945;SDS011;2998;48.206;16.394;2023-04-24T10:56:26;2.10;;;2.00;;
5945;SDS011;2998;48.206;16.394;2023-04-24T10:58:55;1.60;;;1.50;;
5945;SDS011;2998;48.206;16.394;2023-04-24T11:01:25;1.57;;;1.33;;
5945;SDS011;2998;48.206;16.394;2023-04-24T11:03:56;0.73;;;0.73;;
5945;SDS011;2998;48.206;16.394;2023-04-24T11:06:29;1.20;;;1.00;;
5945;SDS011;2998;48.206;16.394;2023-04-24T11:09:04;2.10;;;0.70;;
5945;SDS011;2998;48.206;16.394;2023-04-24T11:11:35;1.10;;;0.93;;
5945;SDS011;2998;48.206;16.394;2023-04-24T11:14:07;0.70;;;0.70;;
5945;SDS011;2998;48.206;16.394;2023-04-24T11:16:39;1.23;;;0.80;;
5945;SDS011;2998;48.206;16.394;2023-04-24T11:19:18;0.83;;;0.83;;
5945;SDS011;2998;48.206;16.394;2023-04-24T11:21:54;0.90;;;0.90;;
5945;SDS011;2998;48.206;16.394;2023-04-24T11:24:29;0.80;;;0.80;;
5945;SDS011;2998;48.206;16.394;2023-04-24T11:27:00;0.90;;;0.90;;
5945;SDS011;2998;48.206;16.394;2023-04-24T11:29:42;1.33;;;1.00;;
5945;SDS011;2998;48.206;16.394;2023-04-24T11:36:25;1.20;;;1.20;;
5945;SDS011;2998;48.206;16.394;2023-04-24T11:43:22;0.70;;;0.70;;
5945;SDS011;2998;48.206;16.394;2023-04-24T11:45:51;2.03;;;1.83;;
5945;SDS011;2998;48.206;16.394;2023-04-24T11:52:33;2.23;;;2.03;;
5945;SDS011;2998;48.206;16.394;2023-04-24T11:55:06;1.20;;;1.10;;
5945;SDS011;2998;48.206;16.394;2023-04-24T11:57:37;0.70;;;0.60;;
5945;SDS011;2998;48.206;16.394;2023-04-24T12:01:04;58.87;;;5.73;;
5945;SDS011;2998;48.206;16.394;2023-04-24T12:07:52;10.03;;;1.57;;
5945;SDS011;2998;48.206;16.394;2023-04-24T12:10:21;4.90;;;2.77;;
5945;SDS011;2998;48.206;16.394;2023-04-24T12:12:51;5.67;;;1.70;;
5945;SDS011;2998;48.206;16.394;2023-04-24T12:16:01;4.20;;;1.70;;
5945;SDS011;2998;48.206;16.394;2023-04-24T12:22:51;1.80;;;1.70;;
5945;SDS011;2998;48.206;16.394;2023-04-24T12:25:22;1.80;;;1.70;;
5945;SDS011;2998;48.206;16.394;2023-04-24T12:27:52;3.33;;;1.50;;
5945;SDS011;2998;48.206;16.394;2023-04-24T12:30:26;2.47;;;1.70;;
5945;SDS011;2998;48.206;16.394;2023-04-24T12:32:58;4.10;;;1.70;;
5945;SDS011;2998;48.206;16.394;2023-04-24T12:35:28;1.30;;;1.10;;
5945;SDS011;2998;48.206;16.394;2023-04-24T12:38:06;1.37;;;0.93;;
5945;SDS011;2998;48.206;16.394;2023-04-24T12:40:37;1.93;;;1.77;;
5945;SDS011;2998;48.206;16.394;2023-04-24T12:43:13;1.30;;;1.20;;
5945;SDS011;2998;48.206;16.394;2023-04-24T12:45:42;0.97;;;0.93;;
5945;SDS011;2998;48.206;16.394;2023-04-24T12:48:13;2.00;;;1.90;;
5945;SDS011;2998;48.206;16.394;2023-04-24T12:50:43;8.70;;;2.40;;
5945;SDS011;2998;48.206;16.394;2023-04-24T12:53:13;1.37;;;1.27;;
5945;SDS011;2998;48.206;16.394;2023-04-24T12:55:43;0.87;;;0.87;;
5945;SDS011;2998;48.206;16.394;2023-04-24T12:58:13;4.43;;;0.70;;
5945;SDS011;2998;48.206;16.394;2023-04-24T13:00:43;1.20;;;1.00;;
5945;SDS011;2998;48.206;16.394;2023-04-24T13:03:14;2.07;;;0.93;;
5945;SDS011;2998;48.206;16.394;2023-04-24T13:05:44;0.80;;;0.70;;
5945;SDS011;2998;48.206;16.394;2023-04-24T13:08:13;0.80;;;0.80;;
5945;SDS011;2998;48.206;16.394;2023-04-24T13:10:42;1.20;;;1.00;;
5945;SDS011;2998;48.206;16.394;2023-04-24T13:13:11;2.50;;;1.90;;
5945;SDS011;2998;48.206;16.394;2023-04-24T13:15:40;1.10;;;1.10;;
5945;SDS011;2998;48.206;16.394;2023-04-24T13:18:10;1.13;;;1.13;;
5945;SDS011;2998;48.206;16.394;2023-04-24T13:20:40;1.57;;;0.87;;
5945;SDS011;2998;48.206;16.394;2023-04-24T13:23:11;0.97;;;0.80;;
5945;SDS011;2998;48.206;16.394;2023-04-24T13:25:41;0.90;;;0.70;;
5945;SDS011;2998;48.206;16.394;2023-04-24T13:28:10;2.50;;;2.33;;
5945;SDS011;2998;48.206;16.394;2023-04-24T13:30:42;1.20;;;0.80;;
5945;SDS011;2998;48.206;16.394;2023-04-24T13:33:12;1.00;;;0.90;;
5945;SDS011;2998;48.206;16.394;2023-04-24T13:35:42;1.73;;;0.80;;
5945;SDS011;2998;48.206;16.394;2023-04-24T13:38:11;0.80;;;0.80;;
5945;SDS011;2998;48.206;16.394;2023-04-24T13:40:41;0.80;;;0.80;;
5945;SDS011;2998;48.206;16.394;2023-04-24T13:43:11;1.10;;;1.00;;
5945;SDS011;2998;48.206;16.394;2023-04-24T13:49:52;1.27;;;0.60;;
5945;SDS011;2998;48.206;16.394;2023-04-24T13:52:23;4.33;;;0.67;;
5945;SDS011;2998;48.206;16.394;2023-04-24T13:59:12;5.20;;;4.80;;
5945;SDS011;2998;48.206;16.394;2023-04-24T14:01:42;3.40;;;3.23;;
5945;SDS011;2998;48.206;16.394;2023-04-24T14:08:32;1.70;;;1.60;;
5945;SDS011;2998;48.206;16.394;2023-04-24T14:11:01;0.83;;;0.70;;
5945;SDS011;2998;48.206;16.394;2023-04-24T14:13:31;1.20;;;0.80;;
5945;SDS011;2998;48.206;16.394;2023-04-24T14:16:01;4.43;;;0.73;;
5945;SDS011;2998;48.206;16.394;2023-04-24T14:18:30;0.80;;;0.80;;
5945;SDS011;2998;48.206;16.394;2023-04-24T14:21:00;1.20;;;0.80;;
5945;SDS011;2998;48.206;16.394;2023-04-24T14:23:30;1.10;;;1.00;;
5945;SDS011;2998;48.206;16.394;2023-04-24T14:30:19;1.33;;;1.23;;
5945;SDS011;2998;48.206;16.394;2023-04-24T14:32:48;1.07;;;1.00;;
5945;SDS011;2998;48.206;16.394;2023-04-24T14:39:40;2.30;;;1.30;;
5945;SDS011;2998;48.206;16.394;2023-04-24T14:42:15;2.00;;;1.50;;
5945;SDS011;2998;48.206;16.394;2023-04-24T14:49:03;1.20;;;1.10;;
5945;SDS011;2998;48.206;16.394;2023-04-24T14:51:32;1.37;;;0.70;;
5945;SDS011;2998;48.206;16.394;2023-04-24T14:54:02;1.20;;;1.10;;
5945;SDS011;2998;48.206;16.394;2023-04-24T14:56:32;0.70;;;0.70;;
5945;SDS011;2998;48.206;16.394;2023-04-24T14:59:02;2.07;;;1.87;;
5945;SDS011;2998;48.206;16.394;2023-04-24T15:05:50;1.53;;;0.80;;
5945;SDS011;2998;48.206;16.394;2023-04-24T15:08:21;0.73;;;0.73;;
5945;SDS011;2998;48.206;16.394;2023-04-24T15:15:11;0.70;;;0.70;;
5945;SDS011;2998;48.206;16.394;2023-04-24T15:17:40;0.80;;;0.80;;
5945;SDS011;2998;48.206;16.394;2023-04-24T15:24:28;0.90;;;0.90;;
5945;SDS011;2998;48.206;16.394;2023-04-24T15:35:48;2.90;;;2.70;;
5945;SDS011;2998;48.206;16.394;2023-04-24T15:38:18;3.43;;;3.27;;
5945;SDS011;2998;48.206;16.394;2023-04-24T15:45:06;2.63;;;2.43;;
5945;SDS011;2998;48.206;16.394;2023-04-24T15:47:36;4.67;;;2.30;;
5945;SDS011;2998;48.206;16.394;2023-04-24T15:50:06;2.87;;;2.67;;
5945;SDS011;2998;48.206;16.394;2023-04-24T15:52:41;2.60;;;2.40;;
5945;SDS011;2998;48.206;16.394;2023-04-24T15:55:11;3.03;;;2.83;;
5945;SDS011;2998;48.206;16.394;2023-04-24T15:57:41;5.93;;;4.83;;
5945;SDS011;2998;48.206;16.394;2023-04-24T16:00:11;3.40;;;3.10;;
5945;SDS011;2998;48.206;16.394;2023-04-24T16:02:41;2.53;;;2.43;;
5945;SDS011;2998;48.206;16.394;2023-04-24T16:05:10;2.10;;;1.97;;
5945;SDS011;2998;48.206;16.394;2023-04-24T16:07:40;4.47;;;2.20;;
5945;SDS011;2998;48.206;16.394;2023-04-24T16:10:11;3.40;;;3.00;;
5945;SDS011;2998;48.206;16.394;2023-04-24T16:12:40;2.20;;;1.80;;
5945;SDS011;2998;48.206;16.394;2023-04-24T16:15:09;2.03;;;1.93;;
5945;SDS011;2998;48.206;16.394;2023-04-24T16:17:39;4.93;;;2.07;;
5945;SDS011;2998;48.206;16.394;2023-04-24T16:20:08;3.17;;;2.97;;
5945;SDS011;2998;48.206;16.394;2023-04-24T16:22:38;6.03;;;3.87;;
5945;SDS011;2998;48.206;16.394;2023-04-24T16:25:09;3.90;;;3.60;;
5945;SDS011;2998;48.206;16.394;2023-04-24T16:27:39;3.77;;;3.47;;
5945;SDS011;2998;48.206;16.394;2023-04-24T16:30:10;2.70;;;2.60;;
5945;SDS011;2998;48.206;16.394;2023-04-24T16:32:43;1.73;;;1.63;;
5945;SDS011;2998;48.206;16.394;2023-04-24T16:35:13;1.70;;;1.60;;
5945;SDS011;2998;48.206;16.394;2023-04-24T16:37:42;1.07;;;0.97;;
5945;SDS011;2998;48.206;16.394;2023-04-24T16:40:13;2.07;;;1.97;;
5945;SDS011;2998;48.206;16.394;2023-04-24T16:46:54;1.73;;;1.63;;
5945;SDS011;2998;48.206;16.394;2023-04-24T16:49:24;1.77;;;1.67;;
5945;SDS011;2998;48.206;16.394;2023-04-24T16:56:17;2.10;;;2.00;;
5945;SDS011;2998;48.206;16.394;2023-04-24T16:58:46;5.27;;;3.23;;
5945;SDS011;2998;48.206;16.394;2023-04-24T17:05:33;3.40;;;2.70;;
5945;SDS011;2998;48.206;16.394;2023-04-24T17:12:30;3.93;;;3.57;;
5945;SDS011;2998;48.206;16.394;2023-04-24T17:14:59;3.23;;;3.03;;
5945;SDS011;2998;48.206;16.394;2023-04-24T17:21:42;6.60;;;3.80;;
5945;SDS011;2998;48.206;16.394;2023-04-24T17:24:12;6.80;;;3.57;;
5945;SDS011;2998;48.206;16.394;2023-04-24T17:31:03;4.90;;;4.30;;
5945;SDS011;2998;48.206;16.394;2023-04-24T17:33:32;13.27;;;8.33;;
5945;SDS011;2998;48.206;16.394;2023-04-24T17:36:02;6.00;;;5.50;;
5945;SDS011;2998;48.206;16.394;2023-04-24T17:38:33;2.60;;;2.40;;
5945;SDS011;2998;48.206;16.394;2023-04-24T17:41:02;2.37;;;1.40;;
5945;SDS011;2998;48.206;16.394;2023-04-24T17:43:31;1.13;;;1.03;;
5945;SDS011;2998;48.206;16.394;2023-04-24T17:46:00;3.43;;;1.63;;
5945;SDS011;2998;48.206;16.394;2023-04-24T17:48:31;2.00;;;1.90;;
5945;SDS011;2998;48.206;16.394;2023-04-24T17:51:00;1.67;;;1.57;;
5945;SDS011;2998;48.206;16.394;2023-04-24T17:53:29;2.23;;;2.13;;
5945;SDS011;2998;48.206;16.394;2023-04-24T17:55:59;4.47;;;2.23;;
5945;SDS011;2998;48.206;16.394;2023-04-24T17:58:29;8.77;;;7.57;;
5945;SDS011;2998;48.206;16.394;2023-04-24T18:01:01;3.03;;;2.83;;
5945;SDS011;2998;48.206;16.394;2023-04-24T18:07:43;4.63;;;3.80;;
5945;SDS011;2998;48.206;16.394;2023-04-24T18:10:19;7.43;;;4.70;;
5945;SDS011;2998;48.206;16.394;2023-04-24T18:17:06;2.40;;;2.30;;
5945;SDS011;2998;48.206;16.394;2023-04-24T18:19:35;3.37;;;3.17;;
5945;SDS011;2998;48.206;16.394;2023-04-24T18:26:25;3.43;;;3.07;;
5945;SDS011;2998;48.206;16.394;2023-04-24T18:37:55;2.60;;;2.50;;
5945;SDS011;2998;48.206;16.394;2023-04-24T18:40:25;2.70;;;2.50;;
5945;SDS011;2998;48.206;16.394;2023-04-24T18:47:14;4.30;;;4.00;;
5945;SDS011;2998;48.206;16.394;2023-04-24T18:49:43;4.10;;;3.80;;
5945;SDS011;2998;48.206;16.394;2023-04-24T18:52:12;3.80;;;3.60;;
5945;SDS011;2998;48.206;16.394;2023-04-24T18:54:41;3.53;;;3.00;;
5945;SDS011;2998;48.206;16.394;2023-04-24T18:57:11;8.07;;;4.30;;
5945;SDS011;2998;48.206;16.394;2023-04-24T18:59:40;7.10;;;3.77;;
5945;SDS011;2998;48.206;16.394;2023-04-24T19:02:10;3.70;;;3.50;;
5945;SDS011;2998;48.206;16.394;2023-04-24T19:04:41;4.50;;;4.10;;
5945;SDS011;2998;48.206;16.394;2023-04-24T19:07:10;3.47;;;3.27;;
5945;SDS011;2998;48.206;16.394;2023-04-24T19:09:39;2.93;;;2.83;;
5945;SDS011;2998;48.206;16.394;2023-04-24T19:12:08;3.73;;;3.43;;
5945;SDS011;2998;48.206;16.394;2023-04-24T19:14:37;2.83;;;2.73;;
5945;SDS011;2998;48.206;16.394;2023-04-24T19:17:07;2.37;;;2.27;;
5945;SDS011;2998;48.206;16.394;2023-04-24T19:19:37;3.93;;;2.30;;
5945;SDS011;2998;48.206;16.394;2023-04-24T19:22:07;2.40;;;2.03;;
5945;SDS011;2998;48.206;16.394;2023-04-24T19:24:36;11.30;;;8.47;;
5945;SDS011;2998;48.206;16.394;2023-04-24T19:27:06;8.10;;;5.90;;
5945;SDS011;2998;48.206;16.394;2023-04-24T19:38:25;2.70;;;2.60;;
5945;SDS011;2998;48.206;16.394;2023-04-24T19:40:54;3.63;;;3.33;;
5945;SDS011;2998;48.206;16.394;2023-04-24T19:47:35;8.60;;;5.57;;
5945;SDS011;2998;48.206;16.394;2023-04-24T19:50:05;6.50;;;5.80;;
5945;SDS011;2998;48.206;16.394;2023-04-24T19:52:35;4.57;;;4.27;;
5945;SDS011;2998;48.206;16.394;2023-04-24T19:55:06;8.57;;;7.27;;
5945;SDS011;2998;48.206;16.394;2023-04-24T19:57:35;6.20;;;5.80;;
5945;SDS011;2998;48.206;16.394;2023-04-24T20:00:05;6.40;;;6.00;;
5945;SDS011;2998;48.206;16.394;2023-04-24T20:02:35;6.77;;;6.10;;
5945;SDS011;2998;48.206;16.394;2023-04-24T20:05:05;6.57;;;6.07;;
5945;SDS011;2998;48.206;16.394;2023-04-24T20:07:35;6.80;;;6.30;;
5945;SDS011;2998;48.206;16.394;2023-04-24T20:10:06;6.13;;;5.73;;
5945;SDS011;2998;48.206;16.394;2023-04-24T20:12:35;7.00;;;6.60;;
5945;SDS011;2998;48.206;16.394;2023-04-24T20:15:05;7.57;;;6.87;;
5945;SDS011;2998;48.206;16.394;2023-04-24T20:17:35;5.30;;;4.80;;
5945;SDS011;2998;48.206;16.394;2023-04-24T20:20:05;5.10;;;4.90;;
5945;SDS011;2998;48.206;16.394;2023-04-24T20:22:37;3.10;;;3.00;;
5945;SDS011;2998;48.206;16.394;2023-04-24T20:29:33;2.10;;;2.00;;
5945;SDS011;2998;48.206;16.394;2023-04-24T20:32:02;1.87;;;1.77;;
5945;SDS011;2998;48.206;16.394;2023-04-24T20:38:51;1.93;;;1.83;;
5945;SDS011;2998;48.206;16.394;2023-04-24T20:41:21;1.37;;;1.30;;
5945;SDS011;2998;48.206;16.394;2023-04-24T20:48:05;1.30;;;1.30;;
5945;SDS011;2998;48.206;16.394;2023-04-24T20:54:55;1.60;;;1.50;;
5945;SDS011;2998;48.206;16.394;2023-04-24T20:57:25;1.60;;;1.47;;
5945;SDS011;2998;48.206;16.394;2023-04-24T21:04:14;1.90;;;1.70;;
5945;SDS011;2998;48.206;16.394;2023-04-24T21:06:43;1.70;;;1.60;;
5945;SDS011;2998;48.206;16.394;2023-04-24T21:13:32;2.43;;;2.23;;
5945;SDS011;2998;48.206;16.394;2023-04-24T21:16:01;2.30;;;2.07;;
5945;SDS011;2998;48.206;16.394;2023-04-24T21:18:31;2.10;;;2.00;;
5945;SDS011;2998;48.206;16.394;2023-04-24T21:21:01;3.30;;;3.10;;
5945;SDS011;2998;48.206;16.394;2023-04-24T21:23:31;1.90;;;1.80;;
5945;SDS011;2998;48.206;16.394;2023-04-24T21:30:12;1.70;;;1.60;;
5945;SDS011;2998;48.206;16.394;2023-04-24T21:32:41;1.57;;;1.47;;
5945;SDS011;2998;48.206;16.394;2023-04-24T21:39:37;2.07;;;1.97;;
5945;SDS011;2998;48.206;16.394;2023-04-24T21:42:06;2.13;;;2.00;;